createdAt,value
2023-04-03T00:01:33.264Z,1.95
2023-04-03T00:04:01.992Z,2.30
2023-04-03T00:06:30.532Z,1.83
2023-04-03T00:08:58.873Z,1.80
2023-04-03T00:11:27.258Z,1.85
2023-04-03T00:13:55.567Z,1.92
2023-04-03T00:16:23.844Z,1.75
2023-04-03T00:18:53.460Z,2.00
2023-04-03T00:21:21.776Z,1.92
2023-04-03T00:23:50.004Z,2.30
2023-04-03T00:26:18.408Z,1.85
2023-04-03T00:28:46.705Z,1.88
2023-04-03T00:31:17.264Z,1.60
2023-04-03T00:33:45.719Z,2.03
2023-04-03T00:36:16.218Z,1.85
2023-04-03T00:38:44.557Z,2.17
2023-04-03T00:41:12.838Z,2.00
2023-04-03T00:43:41.198Z,2.20
2023-04-03T00:46:09.550Z,1.80
2023-04-03T00:48:41.737Z,1.30
2023-04-03T00:51:14.814Z,1.48
2023-04-03T00:53:49.130Z,1.92
2023-04-03T00:56:22.802Z,1.90
2023-04-03T00:58:55.638Z,1.90
2023-04-03T01:01:27.219Z,1.92
2023-04-03T01:03:55.752Z,1.80
2023-04-03T01:06:28.480Z,1.88
2023-04-03T01:08:58.768Z,1.70
2023-04-03T01:11:27.161Z,1.63
2023-04-03T01:13:55.845Z,1.95
2023-04-03T01:16:24.836Z,2.03
2023-04-03T01:18:53.314Z,1.50
2023-04-03T01:21:58.683Z,1.60
2023-04-03T01:24:40.327Z,2.08
2023-04-03T01:27:11.563Z,1.85
2023-04-03T01:29:40.577Z,1.40
2023-04-03T01:32:10.552Z,2.03
2023-04-03T01:34:39.056Z,1.10
2023-04-03T01:37:07.369Z,1.73
2023-04-03T01:39:35.701Z,1.40
2023-04-03T01:42:04.762Z,1.33
2023-04-03T01:44:33.379Z,1.50
2023-04-03T01:47:01.651Z,1.60
2023-04-03T01:49:31.371Z,1.80
2023-04-03T01:51:59.726Z,1.73
2023-04-03T01:54:28.245Z,1.50
2023-04-03T01:56:56.641Z,1.70
2023-04-03T01:59:24.842Z,1.67
2023-04-03T02:01:53.314Z,1.80
2023-04-03T02:04:21.735Z,1.70
2023-04-03T02:06:51.565Z,2.00
2023-04-03T02:09:20.037Z,1.70
2023-04-03T02:11:48.376Z,1.70
2023-04-03T02:14:16.747Z,1.58
2023-04-03T02:16:45.098Z,1.92
2023-04-03T02:19:13.491Z,1.60
2023-04-03T02:21:41.799Z,1.35
2023-04-03T02:24:11.552Z,1.50
2023-04-03T02:26:39.919Z,1.70
2023-04-03T02:29:08.391Z,1.67
2023-04-03T02:31:36.778Z,1.65
2023-04-03T02:34:05.178Z,1.73
2023-04-03T02:36:33.505Z,1.42
2023-04-03T02:39:01.841Z,1.45
2023-04-03T02:41:35.991Z,1.83
2023-04-03T02:44:04.637Z,1.90
2023-04-03T02:46:33.190Z,1.42
2023-04-03T02:49:01.761Z,1.60
2023-04-03T02:51:30.153Z,1.73
2023-04-03T02:53:58.472Z,1.52
2023-04-03T02:56:27.888Z,1.35
2023-04-03T02:58:57.609Z,1.77
2023-04-03T03:01:25.924Z,1.20
2023-04-03T03:03:54.304Z,1.70
2023-04-03T03:06:22.630Z,1.40
2023-04-03T03:08:50.972Z,1.60
2023-04-03T03:11:19.418Z,1.70
2023-04-03T03:13:47.753Z,1.40
2023-04-03T03:16:17.408Z,1.65
2023-04-03T03:18:46.462Z,1.25
2023-04-03T03:21:14.813Z,1.40
2023-04-03T03:23:43.044Z,1.50
2023-04-03T03:26:13.073Z,1.35
2023-04-03T03:28:41.975Z,1.70
2023-04-03T03:31:11.639Z,1.60
2023-04-03T03:33:41.395Z,1.50
2023-04-03T03:36:09.909Z,1.60
2023-04-03T03:38:38.704Z,1.40
2023-04-03T03:41:07.165Z,1.73
2023-04-03T03:43:35.412Z,1.40
2023-04-03T03:46:03.686Z,1.90
2023-04-03T03:48:31.979Z,1.70
2023-04-03T03:51:01.833Z,1.52
2023-04-03T03:53:30.485Z,1.45
2023-04-03T03:55:58.878Z,1.10
2023-04-03T03:58:27.195Z,1.35
2023-04-03T04:00:55.359Z,1.48
2023-04-03T04:03:23.657Z,1.50
2023-04-03T04:05:51.997Z,1.40
2023-04-03T04:08:21.657Z,1.52
2023-04-03T04:10:49.815Z,1.63
2023-04-03T04:13:18.024Z,1.58
2023-04-03T04:15:46.652Z,1.38
2023-04-03T04:18:15.131Z,1.30
2023-04-03T04:20:43.431Z,1.63
2023-04-03T04:23:11.735Z,1.60
2023-04-03T04:25:41.453Z,1.70
2023-04-03T04:28:09.836Z,1.45
2023-04-03T04:30:38.146Z,1.60
2023-04-03T04:33:06.688Z,1.55
2023-04-03T04:35:35.644Z,1.20
2023-04-03T04:38:04.768Z,1.50
2023-04-03T04:40:33.012Z,1.10
2023-04-03T04:43:02.688Z,1.50
2023-04-03T04:45:31.155Z,1.08
2023-04-03T04:47:59.402Z,1.20
2023-04-03T04:50:27.761Z,1.30
2023-04-03T04:52:55.930Z,1.48
2023-04-03T04:55:24.193Z,1.40
2023-04-03T04:57:52.647Z,1.40
2023-04-03T05:00:23.055Z,1.27
2023-04-03T05:02:51.363Z,1.40
2023-04-03T05:05:19.605Z,1.20
2023-04-03T05:07:47.842Z,1.25
2023-04-03T05:10:16.147Z,1.50
2023-04-03T05:12:44.453Z,1.65
2023-04-03T05:15:13.158Z,1.35
2023-04-03T05:17:42.813Z,2.17
2023-04-03T05:20:12.093Z,2.13
2023-04-03T05:22:40.396Z,1.88
2023-04-03T05:25:09.418Z,1.50
2023-04-03T05:27:37.691Z,1.60
2023-04-03T05:30:06.883Z,1.70
2023-04-03T05:32:35.450Z,1.95
2023-04-03T05:35:05.869Z,1.70
2023-04-03T05:37:34.220Z,1.77
2023-04-03T05:40:02.778Z,1.45
2023-04-03T05:42:31.017Z,1.83
2023-04-03T05:44:59.366Z,1.98
2023-04-03T05:47:27.730Z,1.67
2023-04-03T05:49:56.042Z,1.50
2023-04-03T05:52:29.537Z,4.20
2023-04-03T05:54:58.514Z,1.65
2023-04-03T05:57:26.991Z,1.40
2023-04-03T05:59:55.307Z,1.45
2023-04-03T06:02:25.063Z,1.55
2023-04-03T06:04:53.583Z,1.83
2023-04-03T06:07:24.542Z,2.03
2023-04-03T06:09:54.258Z,1.58
2023-04-03T06:12:22.641Z,1.50
2023-04-03T06:14:51.109Z,1.55
2023-04-03T06:17:20.163Z,1.40
2023-04-03T06:19:48.479Z,1.50
2023-04-03T06:22:16.874Z,1.20
2023-04-03T06:24:45.238Z,1.52
2023-04-03T06:27:15.041Z,1.33
2023-04-03T06:29:43.340Z,1.73
2023-04-03T06:32:11.593Z,1.80
2023-04-03T06:34:39.944Z,1.38
2023-04-03T06:37:08.316Z,1.58
2023-04-03T06:39:36.885Z,1.65
2023-04-03T06:42:05.163Z,1.50
2023-04-03T06:44:35.663Z,1.38
2023-04-03T06:47:03.830Z,1.20
2023-04-03T06:49:32.373Z,1.38
2023-04-03T06:52:02.431Z,1.17
2023-04-03T06:54:31.054Z,1.40
2023-04-03T06:56:59.330Z,1.50
2023-04-03T06:59:27.708Z,2.28
2023-04-03T07:01:58.032Z,1.48
2023-04-03T07:04:26.515Z,1.20
2023-04-03T07:06:54.965Z,1.40
2023-04-03T07:09:23.217Z,1.10
2023-04-03T07:11:51.493Z,1.38
2023-04-03T07:14:20.090Z,1.58
2023-04-03T07:16:48.410Z,1.88
2023-04-03T07:19:19.285Z,1.65
2023-04-03T07:21:47.636Z,1.55
2023-04-03T07:24:16.781Z,1.30
2023-04-03T07:26:46.352Z,1.42
2023-04-03T07:29:15.014Z,1.50
2023-04-03T07:31:44.561Z,1.10
2023-04-03T07:34:13.032Z,1.10
2023-04-03T07:36:42.865Z,1.10
2023-04-03T07:39:12.236Z,1.02
2023-04-03T07:41:40.644Z,1.00
2023-04-03T07:44:10.799Z,1.20
2023-04-03T07:46:39.309Z,1.27
2023-04-03T07:49:09.163Z,1.23
2023-04-03T07:51:37.367Z,1.10
2023-04-03T07:54:07.170Z,1.67
2023-04-03T07:56:35.551Z,1.20
2023-04-03T07:59:03.948Z,1.10
2023-04-03T08:01:33.569Z,1.20
2023-04-03T08:04:02.203Z,1.40
2023-04-03T08:06:44.969Z,1.30
2023-04-03T08:09:17.256Z,1.27
2023-04-03T08:11:46.116Z,1.10
2023-04-03T08:14:17.682Z,1.20
2023-04-03T08:16:47.127Z,1.13
2023-04-03T08:19:25.422Z,1.10
2023-04-03T08:21:55.495Z,1.40
2023-04-03T08:24:25.171Z,1.38
2023-04-03T08:26:53.334Z,1.08
2023-04-03T08:29:22.248Z,0.98
2023-04-03T08:31:51.432Z,1.10
2023-04-03T08:34:20.388Z,1.15
2023-04-03T08:36:49.280Z,1.10
2023-04-03T08:39:17.483Z,1.58
2023-04-03T08:41:48.817Z,1.40
2023-04-03T08:44:26.234Z,1.15
2023-04-03T08:47:03.506Z,0.90
2023-04-03T08:49:35.269Z,1.33
2023-04-03T08:52:06.701Z,1.40
2023-04-03T08:54:37.471Z,1.10
2023-04-03T08:57:08.345Z,1.30
2023-04-03T08:59:39.258Z,1.10
2023-04-03T09:02:28.983Z,1.10
2023-04-03T09:04:57.864Z,0.95
2023-04-03T09:07:36.116Z,1.17
2023-04-03T09:10:05.080Z,1.10
2023-04-03T09:12:40.670Z,1.10
2023-04-03T09:15:20.055Z,1.10
2023-04-03T09:18:01.519Z,0.88
2023-04-03T09:20:40.943Z,0.90
2023-04-03T09:23:20.426Z,1.13
2023-04-03T09:25:49.209Z,1.17
2023-04-03T09:28:19.035Z,1.00
2023-04-03T09:30:47.457Z,0.95
2023-04-03T09:33:17.667Z,0.98
2023-04-03T09:35:48.483Z,1.20
2023-04-03T09:40:48.933Z,1.00
2023-04-03T09:43:28.347Z,0.73
2023-04-03T09:45:58.395Z,1.00
2023-04-03T09:48:29.238Z,1.10
2023-04-03T09:51:02.788Z,1.17
2023-04-03T09:53:37.992Z,1.00
2023-04-03T09:56:22.784Z,1.15
2023-04-03T09:59:05.657Z,1.05
2023-04-03T10:01:35.558Z,1.10
2023-04-03T10:04:12.341Z,1.15
2023-04-03T10:06:44.502Z,1.38
2023-04-03T10:09:23.690Z,1.25
2023-04-03T10:12:06.919Z,1.27
2023-04-03T10:14:38.284Z,0.90
2023-04-03T10:17:20.589Z,0.98
2023-04-03T10:19:53.411Z,1.05
2023-04-03T10:22:27.512Z,1.08
2023-04-03T10:25:05.265Z,1.10
2023-04-03T10:27:43.050Z,0.80
2023-04-03T10:30:24.067Z,0.85
2023-04-03T10:33:03.670Z,0.75
2023-04-03T10:35:44.139Z,0.80
2023-04-03T10:38:22.098Z,0.65
2023-04-03T10:40:57.178Z,0.85
2023-04-03T10:43:33.834Z,0.90
2023-04-03T10:46:08.141Z,0.90
2023-04-03T10:49:01.636Z,0.90
2023-04-03T10:51:35.434Z,0.95
2023-04-03T10:54:10.312Z,1.23
2023-04-03T10:56:41.531Z,0.77
2023-04-03T10:59:25.708Z,1.50
2023-04-03T11:01:58.336Z,1.17
2023-04-03T11:04:30.782Z,1.10
2023-04-03T11:07:04.293Z,1.00
2023-04-03T11:09:38.256Z,0.98
2023-04-03T11:12:19.608Z,0.95
2023-04-03T11:14:50.080Z,0.95
2023-04-03T11:17:31.506Z,0.82
2023-04-03T11:20:07.656Z,1.38
2023-04-03T11:22:38.632Z,1.20
2023-04-03T11:25:20.935Z,1.08
2023-04-03T11:27:53.077Z,1.35
2023-04-03T11:30:25.743Z,1.08
2023-04-03T11:33:16.482Z,0.82
2023-04-03T11:35:46.958Z,0.90
2023-04-03T11:38:21.672Z,0.90
2023-04-03T11:40:51.338Z,0.85
2023-04-03T11:43:26.559Z,0.95
2023-04-03T11:46:01.938Z,1.00
2023-04-03T11:48:54.258Z,1.00
2023-04-03T11:51:44.996Z,0.88
2023-04-03T11:54:45.651Z,0.93
2023-04-03T11:57:49.467Z,0.95
2023-04-03T12:00:58.450Z,1.10
2023-04-03T12:04:09.236Z,0.82
2023-04-03T12:07:03.874Z,0.90
2023-04-03T12:09:52.570Z,0.93
2023-04-03T12:12:31.285Z,0.88
2023-04-03T12:15:29.311Z,0.90
2023-04-03T12:17:57.643Z,1.10
2023-04-03T12:21:00.024Z,0.90
2023-04-03T12:23:32.792Z,0.80
2023-04-03T12:26:23.295Z,0.90
2023-04-03T12:28:53.889Z,0.73
2023-04-03T12:31:25.034Z,0.80
2023-04-03T12:34:11.486Z,1.08
2023-04-03T12:36:49.353Z,0.90
2023-04-03T12:39:36.190Z,0.98
2023-04-03T12:42:18.675Z,0.70
2023-04-03T12:44:55.772Z,0.80
2023-04-03T12:47:34.029Z,1.10
2023-04-03T12:50:04.179Z,1.05
2023-04-03T12:52:39.049Z,1.02
2023-04-03T12:55:17.580Z,0.93
2023-04-03T12:57:46.803Z,0.80
2023-04-03T13:00:34.549Z,1.10
2023-04-03T13:03:05.306Z,1.00
2023-04-03T13:05:36.710Z,0.70
2023-04-03T13:08:07.759Z,0.90
2023-04-03T13:10:48.933Z,0.77
2023-04-03T13:15:50.266Z,0.60
2023-04-03T13:18:27.015Z,1.13
2023-04-03T13:20:58.218Z,1.13
2023-04-03T13:23:26.962Z,0.82
2023-04-03T13:25:59.268Z,0.77
2023-04-03T13:28:27.631Z,0.60
2023-04-03T13:31:06.639Z,0.70
2023-04-03T13:33:38.844Z,0.80
2023-04-03T13:36:13.755Z,0.90
2023-04-03T13:38:42.042Z,0.82
2023-04-03T13:41:27.564Z,0.90
2023-04-03T13:44:03.457Z,1.13
2023-04-03T13:46:38.832Z,1.35
2023-04-03T13:49:21.721Z,0.90
2023-04-03T13:52:03.923Z,0.90
2023-04-03T13:54:37.981Z,1.20
2023-04-03T13:57:15.633Z,1.00
2023-04-03T13:59:45.264Z,0.88
2023-04-03T14:02:19.250Z,1.02
2023-04-03T14:04:54.170Z,0.73
2023-04-03T14:07:22.516Z,1.10
2023-04-03T14:09:51.679Z,1.10
2023-04-03T14:12:31.313Z,0.90
2023-04-03T14:15:02.558Z,1.10
2023-04-03T14:17:32.283Z,1.10
2023-04-03T14:20:02.039Z,1.33
2023-04-03T14:22:34.648Z,1.17
2023-04-03T14:25:04.287Z,1.10
2023-04-03T14:27:38.909Z,1.83
2023-04-03T14:30:10.003Z,0.82
2023-04-03T14:32:38.394Z,1.10
2023-04-03T14:35:07.712Z,1.02
2023-04-03T14:37:36.448Z,1.10
2023-04-03T14:40:07.039Z,1.10
2023-04-03T14:42:39.529Z,1.05
2023-04-03T14:45:11.713Z,1.00
2023-04-03T14:47:44.920Z,0.88
2023-04-03T14:50:18.105Z,1.00
2023-04-03T14:52:47.426Z,1.10
2023-04-03T14:55:17.782Z,0.90
2023-04-03T14:57:47.877Z,1.73
2023-04-03T15:00:19.185Z,1.85
2023-04-03T15:02:48.888Z,1.20
2023-04-03T15:05:18.004Z,1.00
2023-04-03T15:07:50.987Z,0.73
2023-04-03T15:10:22.408Z,1.10
2023-04-03T15:12:53.018Z,1.20
2023-04-03T15:15:22.872Z,1.08
2023-04-03T15:17:55.720Z,1.05
2023-04-03T15:20:26.151Z,1.45
2023-04-03T15:22:54.843Z,1.10
2023-04-03T15:25:23.354Z,1.00
2023-04-03T15:27:52.973Z,1.20
2023-04-03T15:30:22.549Z,0.93
2023-04-03T15:32:51.678Z,1.10
2023-04-03T15:35:20.584Z,1.23
2023-04-03T15:37:49.557Z,1.00
2023-04-03T15:40:18.249Z,1.10
2023-04-03T15:42:46.563Z,1.10
2023-04-03T15:45:16.330Z,1.08
2023-04-03T15:47:44.827Z,0.80
2023-04-03T15:50:13.123Z,0.82
2023-04-03T15:52:41.376Z,1.10
2023-04-03T15:55:09.930Z,1.00
2023-04-03T16:00:08.076Z,0.90
2023-04-03T16:02:37.808Z,0.90
2023-04-03T16:05:06.716Z,0.80
2023-04-03T16:07:34.962Z,1.02
2023-04-03T16:10:03.356Z,1.20
2023-04-03T16:12:31.804Z,1.00
2023-04-03T16:15:00.228Z,1.00
2023-04-03T16:17:29.364Z,1.05
2023-04-03T16:19:59.075Z,1.10
2023-04-03T16:22:29.715Z,2.15
2023-04-03T16:24:58.147Z,1.67
2023-04-03T16:27:28.476Z,1.73
2023-04-03T16:29:56.764Z,2.30
2023-04-03T16:32:25.832Z,1.65
2023-04-03T16:34:54.587Z,1.67
2023-04-03T16:37:24.941Z,1.30
2023-04-03T16:39:54.088Z,1.88
2023-04-03T16:42:22.475Z,1.88
2023-04-03T16:44:50.813Z,1.55
2023-04-03T16:47:20.270Z,1.73
2023-04-03T16:49:49.237Z,1.20
2023-04-03T16:52:17.528Z,1.88
2023-04-03T16:54:47.289Z,1.40
2023-04-03T16:57:15.620Z,1.15
2023-04-03T16:59:43.928Z,2.03
2023-04-03T17:02:12.120Z,1.48
2023-04-03T17:04:40.325Z,1.48
2023-04-03T17:07:08.652Z,1.65
2023-04-03T17:09:36.927Z,1.40
2023-04-03T17:12:06.747Z,1.70
2023-04-03T17:14:34.989Z,1.77
2023-04-03T17:17:04.234Z,2.08
2023-04-03T17:19:32.849Z,1.77
2023-04-03T17:22:01.424Z,1.40
2023-04-03T17:24:30.050Z,1.67
2023-04-03T17:26:58.408Z,1.25
2023-04-03T17:29:27.933Z,1.40
2023-04-03T17:31:56.489Z,1.33
2023-04-03T17:34:24.916Z,1.75
2023-04-03T17:36:53.196Z,1.70
2023-04-03T17:39:21.710Z,1.42
2023-04-03T17:41:50.503Z,1.55
2023-04-03T17:44:18.757Z,1.20
2023-04-03T17:46:48.329Z,1.40
2023-04-03T17:49:18.845Z,1.48
2023-04-03T17:51:47.466Z,1.35
2023-04-03T17:54:16.960Z,1.40
2023-04-03T17:56:48.220Z,1.40
2023-04-03T17:59:17.400Z,1.00
2023-04-03T18:01:48.186Z,1.13
2023-04-03T18:04:17.292Z,2.20
2023-04-03T18:06:48.106Z,0.95
2023-04-03T18:09:19.398Z,1.30
2023-04-03T18:11:49.361Z,1.00
2023-04-03T18:14:21.092Z,1.30
2023-04-03T18:16:50.955Z,1.27
2023-04-03T18:19:23.339Z,1.67
2023-04-03T18:21:52.954Z,1.20
2023-04-03T18:24:22.996Z,1.10
2023-04-03T18:26:54.956Z,1.20
2023-04-03T18:29:23.530Z,1.13
2023-04-03T18:31:55.960Z,1.25
2023-04-03T18:34:24.314Z,1.27
2023-04-03T18:36:52.692Z,1.00
2023-04-03T18:39:22.374Z,1.45
2023-04-03T18:41:52.679Z,1.13
2023-04-03T18:44:24.541Z,1.10
2023-04-03T18:46:56.985Z,1.30
2023-04-03T18:49:25.619Z,1.33
2023-04-03T18:51:53.818Z,1.00
2023-04-03T18:54:22.171Z,1.52
2023-04-03T18:56:50.550Z,1.20
2023-04-03T18:59:18.697Z,1.25
2023-04-03T19:01:47.052Z,1.20
2023-04-03T19:04:17.266Z,1.20
2023-04-03T19:06:45.825Z,1.53
2023-04-03T19:09:14.472Z,1.33
2023-04-03T19:11:42.779Z,1.33
2023-04-03T19:14:16.687Z,1.40
2023-04-03T19:16:45.813Z,1.63
2023-04-03T19:19:14.224Z,1.23
2023-04-03T19:21:43.824Z,1.40
2023-04-03T19:24:13.402Z,1.30
2023-04-03T19:26:42.136Z,1.50
2023-04-03T19:29:10.635Z,1.30
2023-04-03T19:31:40.343Z,1.15
2023-04-03T19:34:09.292Z,1.48
2023-04-03T19:36:38.236Z,1.33
2023-04-03T19:39:08.140Z,1.20
2023-04-03T19:41:38.261Z,1.48
2023-04-03T19:44:07.836Z,2.20
2023-04-03T19:46:36.765Z,2.60
2023-04-03T19:49:06.153Z,1.40
2023-04-03T19:51:34.516Z,1.88
2023-04-03T19:54:02.656Z,2.17
2023-04-03T19:56:33.076Z,1.80
2023-04-03T19:59:01.333Z,1.80
2023-04-03T20:01:30.951Z,1.60
2023-04-03T20:03:59.469Z,3.15
2023-04-03T20:06:27.807Z,1.90
2023-04-03T20:08:56.324Z,1.80
2023-04-03T20:11:25.290Z,1.60
2023-04-03T20:13:56.383Z,1.60
2023-04-03T20:18:56.370Z,1.45
2023-04-03T20:21:32.003Z,1.45
2023-04-03T20:24:00.488Z,1.67
2023-04-03T20:26:31.807Z,1.40
2023-04-03T20:29:03.421Z,1.40
2023-04-03T20:31:33.566Z,1.67
2023-04-03T20:34:03.144Z,1.33
2023-04-03T20:36:31.848Z,1.40
2023-04-03T20:39:00.415Z,1.30
2023-04-03T20:41:28.640Z,1.60
2023-04-03T20:43:57.738Z,1.45
2023-04-03T20:46:42.279Z,1.55
2023-04-03T20:51:45.307Z,1.50
2023-04-03T20:54:13.616Z,1.55
2023-04-03T20:56:42.739Z,1.10
2023-04-03T20:59:11.518Z,1.65
2023-04-03T21:01:42.430Z,1.45
2023-04-03T21:04:15.831Z,1.25
2023-04-03T21:07:21.579Z,1.75
2023-04-03T21:10:28.435Z,1.50
2023-04-03T21:13:34.822Z,1.65
2023-04-03T21:16:03.043Z,1.42
2023-04-03T21:19:10.413Z,1.20
2023-04-03T21:21:38.961Z,2.00
2023-04-03T21:24:10.187Z,1.40
2023-04-03T21:26:39.510Z,1.10
2023-04-03T21:29:08.440Z,1.30
2023-04-03T21:31:53.762Z,1.50
2023-04-03T21:34:26.275Z,1.45
2023-04-03T21:36:54.752Z,1.27
2023-04-03T21:39:23.328Z,1.38
2023-04-03T21:41:52.592Z,1.30
2023-04-03T21:44:22.280Z,1.02
2023-04-03T21:46:53.741Z,1.13
2023-04-03T21:49:24.234Z,1.40
2023-04-03T21:51:52.808Z,1.30
2023-04-03T21:54:21.208Z,1.35
2023-04-03T21:56:49.633Z,0.98
2023-04-03T21:59:18.156Z,1.17
2023-04-03T22:01:46.676Z,1.27
2023-04-03T22:04:15.711Z,1.20
2023-04-03T22:06:45.884Z,1.20
2023-04-03T22:09:14.359Z,1.13
2023-04-03T22:11:45.910Z,1.35
2023-04-03T22:14:14.351Z,1.02
2023-04-03T22:16:46.592Z,1.27
2023-04-03T22:19:15.039Z,1.30
2023-04-03T22:21:44.607Z,1.27
2023-04-03T22:24:13.415Z,1.13
2023-04-03T22:26:44.414Z,1.00
2023-04-03T22:31:42.401Z,1.27
2023-04-03T22:34:11.168Z,0.70
2023-04-03T22:36:39.462Z,0.77
2023-04-03T22:39:10.803Z,1.23
2023-04-03T22:41:39.697Z,1.48
2023-04-03T22:44:08.158Z,1.20
2023-04-03T22:46:36.532Z,1.17
2023-04-03T22:49:05.420Z,1.40
2023-04-03T22:51:33.652Z,0.88
2023-04-03T22:54:01.822Z,0.90
2023-04-03T22:56:31.513Z,1.30
2023-04-03T22:58:59.743Z,1.05
2023-04-03T23:01:29.355Z,1.20
2023-04-03T23:03:57.737Z,1.30
2023-04-03T23:06:26.682Z,1.00
2023-04-03T23:08:54.835Z,1.33
2023-04-03T23:11:23.428Z,1.08
2023-04-03T23:13:52.976Z,0.88
2023-04-03T23:16:21.228Z,1.05
2023-04-03T23:18:50.108Z,1.27
2023-04-03T23:21:18.450Z,1.35
2023-04-03T23:23:46.706Z,0.85
2023-04-03T23:26:15.008Z,0.88
2023-04-03T23:28:43.353Z,1.00
2023-04-03T23:31:12.938Z,1.05
2023-04-03T23:33:43.921Z,1.17
2023-04-03T23:38:41.282Z,1.00
2023-04-03T23:41:09.613Z,0.80
2023-04-03T23:43:38.047Z,1.35
2023-04-03T23:46:06.404Z,1.20
2023-04-03T23:48:36.480Z,1.02
2023-04-03T23:51:05.102Z,1.10
2023-04-03T23:53:33.371Z,0.80
2023-04-03T23:56:01.645Z,1.00
2023-04-03T23:58:29.895Z,0.85
